Pl Patronyme - Surname S-Cat Club - Team TEMPS - Time /sx Actions
1 MATHYS ARBIN (1331) MPO (1) RODEZ TRIATHLON 12 0:08:23.93 1
2 DORIAN ESTEVE (1336) MPO (2) TRIATHLON CLUB LA GRANDE MOTTE (GMT) 0:08:28.11 2
3 BENJAMIN PAPA (1324) MPO (3) MONTPELLIER TRIATHLON 0:08:31.12 3
4 MERLIJN DOREZ (1338) MPO (4) ZEROD 0:08:36.89 4
5 LUCA FATTORI (1353) MPO (5)   0:08:37.04 5
6 ADÈLE BILOT (1320) FPO (1) MAT MONTPELLIER 0:08:50.81 1
7 YOUENN LE BEUZE (1339) MPO (6)   0:09:07.19 6
8 ELYNE CALMELS (1321) FPO (2) MAT MONTPELLIER 0:09:15.07 2
9 EMMY CATHY GEISLER (1388) FPO (3)   0:09:23.12 3
10 ELIOTT GEORGEL (1310) MPO (7) hbc clermont salagou 0:09:26.41 7
11 PIERRIC ROQUE (1347) MPO (8)   0:09:47.69 8
12 JULYAN ORTIGOSA (1316) MPO (9) MAT 0:09:54.89 9
13 MARIN MILOT (1329) MPO (10) ROC DE LA LEGUE 0:09:59.53 10
14 THIBAUT ABADIE (1303) MPO (11) AS MURET TRIATHLON 0:10:01.21 11
15 HANAE REYNAUD (1322) FPO (4) MAT MONTPELLIER 0:10:02.91 4
16 MARGAUX DARDAILLON (1386) FPO (5)   0:10:07.20 5
17 PIERRE ARCELLA (1312) MPO (12) LOUPIAN TRI NATURE 0:10:17.12 12
18 TITOUAN BOUZID--ROUQUETTE (1341) MPO (13)   0:10:46.01 13
19 EWEN FOUDRINIER (1380) MPO (14)   0:10:46.01 14
20 EMERIC BERBON DROCOURT (1345) MPO (15)   0:11:04.04 15
21 NOE ROUX (1356) MPO (16)   0:11:08.62 16
22 CLARA FATTORI (1373) FPO (6)   0:11:11.23 6
23 LEON LEBRETON (1382) MPO (17) MONTPELLIER TRIATHLON 0:11:11.79 17
24 SARA LAPEYRONIE (1325) FPO (7) MONTPELLIER TRIATHLON 0:11:16.29 7
25 RAPHAËL SALINI (1307) MPO (18) DRAGUIGNAN TRIATHLON 0:11:31.06 18
26 GIULIA HUGAIN (1351) FPO (8)   0:11:34.56 8
27 LOUIS DOUREL (1311) MPO (19) LES CHAMEAUX DE BEZIERS 0:11:39.33 19
28 LOUANE DELORME (1333) FPO (9) SALINDRES TRIATHLON 0:11:39.74 9
29 AYMRIC LAPEINE- GUIZARD (1330) MPO (20) ROC EVASION 0:11:47.66 20
30 LEO CASASSUS (1361) MPO (21)   0:11:51.46 21
31 LINA BELAFKIH (1318) FPO (10) MAT MONTPELLIER 0:11:53.12 10
32 LISE JAGUENAUD (1350) FPO (11)   0:12:02.84 11
33 LORENA LOPEZ (1328) FPO (12) Pas de club. 0:12:05.31 12
34 ALEXANDRE ANGLADE (1389) MPO (22) MONTPELLIER TRIATHLON 0:12:12.42 22
35 DIANE GOUTTES (1367) FPO (13)   0:12:15.00 13
36 MAXIME BOUTONNET (1352) MPO (23)   0:12:15.18 23
37 ELIO PERRIN (1308) MPO (24) Draguignan triathlon 0:12:23.04 24
38 TAKIK BECHFICIH (1200) MPO (25)   0:12:25.15 25
39 ROMAIN COURTIN (1326) MPO (26) MUC 0:12:30.41 26
40 MAEVA BOUZID--ROUQUETTE (1360) FPO (14)   0:12:32.88 14
41 JULES RIGAILL (1302) MPO (27) AQUASPORT SAINT CYPRIEN 0:12:33.50 27
42 SIBYLLE CHENAUD (1366) FPO (15)   0:12:36.85 15
43 ELOAN BERBON DROCOURT (1363) MPO (28)   0:12:36.89 28
44 ALEXY MELUN (1319) MPO (29) MAT MONTPELLIER 0:12:48.39 29
45 JULIEN PAQUIN SANCHEZ (1346) MPO (30)   0:12:51.11 30
46 NINA DESVIGNES (1379) FPO (16)   0:12:51.44 16
47 VICTOR SELAS (1365) MPO (31)   0:12:58.40 31
48 ANGE CONSTANT (1348) FPO (17)   0:13:05.59 17
49 MAXANCE MICHAUT (1362) MPO (32)   0:13:09.40 32
50 TÉO CANOVAS (1332) MPO (33) ROUE LIBRE GIGNACOISE 0:13:09.54 33
51 ANGELE MAXANT (1387) FPO (18)   0:13:18.27 18
52 BALIAN ESPINASSE (1335) MPO (34) TRI AUCH 32 0:13:32.34 34
53 ARMEL MORENO (1305) MPO (35) CAVAILLON TRIATHLON CLUB 0:13:35.72 35
54 FREDERIC MARTY (1385) MPO (36)   0:13:36.67 36
55 MALO SARNETTE (1306) MPO (37) CAVAILLON TRIATHLON CLUB 0:13:42.75 37
56 ELISA LACROIX MELLIER (1349) FPO (19)   0:13:44.67 19
57 ANNA SAFI (1323) FPO (20) MAT MONTPELLIER 0:13:57.06 20
58 MAXIME AMBROISE (1371) MPO (38)   0:14:09.91 38
59 VICTOR PICARD--GUINDON (1354) MPO (39)   0:14:13.66 39
60 SANTIAGO COMPAN--GARCIA (1358) MPO (40)   0:14:14.53 40
61 AMIN BELMEKKI (1359) MPO (41)   0:14:29.01 41
62 NABIL TAJIN (1383) MPO (42)   0:14:30.60 42
63 YAEL FOUDRINIER (1381) MPO (43)   0:14:47.45 43
64 STELLA FEVET (1374) FPO (21)   0:14:49.00 21
65 CLEMENT ASTIER (1375) MPO (44)   0:15:04.98 44
66 GABIN GEORGEL (1377) MPO (45)   0:15:09.85 45
67 EVA ESTEBAN-LOPEZ (1369) FPO (22)   0:15:10.97 22
68 ELLINE EZZAOUYA (1355) FPO (23)   0:15:21.33 23
69 GASPARD PAQUIN SANCHEZ (1364) MPO (46)   0:15:22.23 46
70 NOEMIE TEMPOREL (1340) FPO (24)   0:15:31.56 24
71 IBTISSANE TAJIN (1384) FPO (25)   0:15:39.30 25
72 MARGOT BOSSIS (1368) FPO (26)   0:16:21.22 26
73 TOM RAOUX (1372) MPO (47)   0:16:40.78 47
74 MAIWEN CLERE PERRIER (1334) FPO (27) sb sporteam 0:17:53.58 27
75 SOPHIA DE BOUSSAC (1390) FPO (28)   0:17:53.95 28